sensor_id;sensor_type;location;lat;lon;timestamp;P1;durP1;ratioP1;P2;durP2;ratioP2
25868;SDS011;13688;53.154;18.136;2023-04-28T00:04:58;22.60;;;9.93;;
25868;SDS011;13688;53.154;18.136;2023-04-28T00:10:23;25.17;;;10.20;;
25868;SDS011;13688;53.154;18.136;2023-04-28T00:15:51;21.12;;;11.12;;
25868;SDS011;13688;53.154;18.136;2023-04-28T00:21:16;24.30;;;10.05;;
25868;SDS011;13688;53.154;18.136;2023-04-28T00:26:42;18.57;;;9.75;;
25868;SDS011;13688;53.154;18.136;2023-04-28T00:32:07;18.80;;;10.18;;
25868;SDS011;13688;53.154;18.136;2023-04-28T00:37:34;19.57;;;9.53;;
25868;SDS011;13688;53.154;18.136;2023-04-28T00:42:57;18.67;;;9.00;;
25868;SDS011;13688;53.154;18.136;2023-04-28T00:48:21;19.98;;;10.15;;
25868;SDS011;13688;53.154;18.136;2023-04-28T00:53:46;20.35;;;9.55;;
25868;SDS011;13688;53.154;18.136;2023-04-28T00:59:10;16.80;;;8.58;;
25868;SDS011;13688;53.154;18.136;2023-04-28T01:04:35;19.17;;;9.53;;
25868;SDS011;13688;53.154;18.136;2023-04-28T01:10:03;21.00;;;9.65;;
25868;SDS011;13688;53.154;18.136;2023-04-28T01:15:27;17.37;;;8.00;;
25868;SDS011;13688;53.154;18.136;2023-04-28T01:20:51;14.10;;;7.60;;
25868;SDS011;13688;53.154;18.136;2023-04-28T01:26:16;15.43;;;7.40;;
25868;SDS011;13688;53.154;18.136;2023-04-28T01:31:40;16.77;;;7.37;;
25868;SDS011;13688;53.154;18.136;2023-04-28T01:37:05;14.45;;;6.40;;
25868;SDS011;13688;53.154;18.136;2023-04-28T01:42:30;14.18;;;7.60;;
25868;SDS011;13688;53.154;18.136;2023-04-28T01:47:54;16.05;;;7.80;;
25868;SDS011;13688;53.154;18.136;2023-04-28T01:53:18;13.65;;;7.53;;
25868;SDS011;13688;53.154;18.136;2023-04-28T01:58:42;12.40;;;6.87;;
25868;SDS011;13688;53.154;18.136;2023-04-28T02:04:07;14.98;;;7.65;;
25868;SDS011;13688;53.154;18.136;2023-04-28T02:09:32;19.42;;;8.65;;
25868;SDS011;13688;53.154;18.136;2023-04-28T02:14:55;16.37;;;7.75;;
25868;SDS011;13688;53.154;18.136;2023-04-28T02:20:19;15.43;;;7.70;;
25868;SDS011;13688;53.154;18.136;2023-04-28T02:25:44;16.35;;;8.28;;
25868;SDS011;13688;53.154;18.136;2023-04-28T02:31:10;19.42;;;7.97;;
25868;SDS011;13688;53.154;18.136;2023-04-28T02:36:35;18.87;;;9.53;;
25868;SDS011;13688;53.154;18.136;2023-04-28T02:42:00;20.55;;;9.88;;
25868;SDS011;13688;53.154;18.136;2023-04-28T02:47:24;20.80;;;9.18;;
25868;SDS011;13688;53.154;18.136;2023-04-28T02:52:49;26.35;;;11.60;;
25868;SDS011;13688;53.154;18.136;2023-04-28T02:58:13;30.88;;;11.12;;
25868;SDS011;13688;53.154;18.136;2023-04-28T03:03:38;26.12;;;12.13;;
25868;SDS011;13688;53.154;18.136;2023-04-28T03:09:04;24.25;;;11.65;;
25868;SDS011;13688;53.154;18.136;2023-04-28T03:14:28;28.40;;;13.95;;
25868;SDS011;13688;53.154;18.136;2023-04-28T03:19:53;34.20;;;14.38;;
25868;SDS011;13688;53.154;18.136;2023-04-28T03:25:18;40.73;;;14.63;;
25868;SDS011;13688;53.154;18.136;2023-04-28T03:30:43;35.73;;;15.98;;
25868;SDS011;13688;53.154;18.136;2023-04-28T03:36:06;38.13;;;16.50;;
25868;SDS011;13688;53.154;18.136;2023-04-28T03:41:31;37.83;;;16.40;;
25868;SDS011;13688;53.154;18.136;2023-04-28T03:46:56;33.95;;;15.70;;
25868;SDS011;13688;53.154;18.136;2023-04-28T03:52:21;26.90;;;13.72;;
25868;SDS011;13688;53.154;18.136;2023-04-28T03:57:46;39.63;;;15.18;;
25868;SDS011;13688;53.154;18.136;2023-04-28T04:03:10;34.27;;;13.72;;
25868;SDS011;13688;53.154;18.136;2023-04-28T04:08:35;38.42;;;14.43;;
25868;SDS011;13688;53.154;18.136;2023-04-28T04:14:00;39.27;;;16.15;;
25868;SDS011;13688;53.154;18.136;2023-04-28T04:19:24;42.43;;;15.00;;
25868;SDS011;13688;53.154;18.136;2023-04-28T04:24:49;42.75;;;15.03;;
25868;SDS011;13688;53.154;18.136;2023-04-28T04:30:12;38.13;;;14.07;;
25868;SDS011;13688;53.154;18.136;2023-04-28T04:35:36;28.92;;;12.60;;
25868;SDS011;13688;53.154;18.136;2023-04-28T04:41:00;31.90;;;14.13;;
25868;SDS011;13688;53.154;18.136;2023-04-28T04:46:25;26.75;;;12.28;;
25868;SDS011;13688;53.154;18.136;2023-04-28T04:51:50;24.37;;;11.73;;
25868;SDS011;13688;53.154;18.136;2023-04-28T04:57:14;26.87;;;12.33;;
25868;SDS011;13688;53.154;18.136;2023-04-28T05:02:38;35.98;;;13.70;;
25868;SDS011;13688;53.154;18.136;2023-04-28T05:08:03;37.17;;;14.95;;
25868;SDS011;13688;53.154;18.136;2023-04-28T05:13:28;32.13;;;14.55;;
25868;SDS011;13688;53.154;18.136;2023-04-28T05:18:54;33.28;;;14.20;;
25868;SDS011;13688;53.154;18.136;2023-04-28T05:24:20;27.75;;;13.35;;
25868;SDS011;13688;53.154;18.136;2023-04-28T05:29:43;29.75;;;14.35;;
25868;SDS011;13688;53.154;18.136;2023-04-28T05:35:08;28.23;;;13.62;;
25868;SDS011;13688;53.154;18.136;2023-04-28T05:40:34;30.45;;;13.55;;
25868;SDS011;13688;53.154;18.136;2023-04-28T05:45:59;28.67;;;13.98;;
25868;SDS011;13688;53.154;18.136;2023-04-28T05:51:26;31.33;;;14.38;;
25868;SDS011;13688;53.154;18.136;2023-04-28T05:56:50;32.78;;;14.25;;
25868;SDS011;13688;53.154;18.136;2023-04-28T06:02:16;28.77;;;13.03;;
25868;SDS011;13688;53.154;18.136;2023-04-28T06:07:41;25.52;;;12.73;;
25868;SDS011;13688;53.154;18.136;2023-04-28T06:13:07;26.80;;;11.55;;
25868;SDS011;13688;53.154;18.136;2023-04-28T06:18:31;26.12;;;12.07;;
25868;SDS011;13688;53.154;18.136;2023-04-28T06:23:55;28.52;;;11.73;;
25868;SDS011;13688;53.154;18.136;2023-04-28T06:29:21;24.27;;;12.55;;
25868;SDS011;13688;53.154;18.136;2023-04-28T06:34:45;24.55;;;13.00;;
25868;SDS011;13688;53.154;18.136;2023-04-28T06:40:10;31.35;;;12.45;;
25868;SDS011;13688;53.154;18.136;2023-04-28T06:45:35;27.32;;;12.53;;
25868;SDS011;13688;53.154;18.136;2023-04-28T06:51:00;34.60;;;13.00;;
25868;SDS011;13688;53.154;18.136;2023-04-28T06:56:25;35.98;;;13.13;;
25868;SDS011;13688;53.154;18.136;2023-04-28T07:01:49;35.52;;;12.78;;
25868;SDS011;13688;53.154;18.136;2023-04-28T07:07:14;29.42;;;12.95;;
25868;SDS011;13688;53.154;18.136;2023-04-28T07:12:38;21.87;;;11.80;;
25868;SDS011;13688;53.154;18.136;2023-04-28T07:18:03;24.25;;;9.73;;
25868;SDS011;13688;53.154;18.136;2023-04-28T07:23:28;24.57;;;10.45;;
25868;SDS011;13688;53.154;18.136;2023-04-28T07:28:52;19.92;;;8.73;;
25868;SDS011;13688;53.154;18.136;2023-04-28T07:34:18;26.02;;;6.58;;
25868;SDS011;13688;53.154;18.136;2023-04-28T07:39:43;26.52;;;8.15;;
25868;SDS011;13688;53.154;18.136;2023-04-28T07:45:07;15.93;;;4.33;;
25868;SDS011;13688;53.154;18.136;2023-04-28T07:50:31;10.85;;;4.20;;
25868;SDS011;13688;53.154;18.136;2023-04-28T07:55:54;12.47;;;4.67;;
25868;SDS011;13688;53.154;18.136;2023-04-28T08:01:19;13.35;;;3.58;;
25868;SDS011;13688;53.154;18.136;2023-04-28T08:06:44;11.78;;;3.65;;
25868;SDS011;13688;53.154;18.136;2023-04-28T08:12:08;7.15;;;2.80;;
25868;SDS011;13688;53.154;18.136;2023-04-28T08:17:33;4.78;;;2.47;;
25868;SDS011;13688;53.154;18.136;2023-04-28T08:22:58;6.15;;;2.98;;
25868;SDS011;13688;53.154;18.136;2023-04-28T08:28:23;5.62;;;2.55;;
25868;SDS011;13688;53.154;18.136;2023-04-28T08:33:47;3.52;;;1.80;;
25868;SDS011;13688;53.154;18.136;2023-04-28T08:39:12;5.08;;;2.25;;
25868;SDS011;13688;53.154;18.136;2023-04-28T08:44:38;4.97;;;1.90;;
25868;SDS011;13688;53.154;18.136;2023-04-28T08:50:03;4.85;;;2.00;;
25868;SDS011;13688;53.154;18.136;2023-04-28T08:55:32;6.08;;;2.35;;
25868;SDS011;13688;53.154;18.136;2023-04-28T09:00:59;3.85;;;2.00;;
25868;SDS011;13688;53.154;18.136;2023-04-28T09:06:29;7.20;;;2.00;;
25868;SDS011;13688;53.154;18.136;2023-04-28T09:11:54;7.70;;;2.20;;
25868;SDS011;13688;53.154;18.136;2023-04-28T09:17:20;4.37;;;1.90;;
25868;SDS011;13688;53.154;18.136;2023-04-28T09:28:40;7.35;;;2.55;;
25868;SDS011;13688;53.154;18.136;2023-04-28T09:34:06;6.05;;;2.10;;
25868;SDS011;13688;53.154;18.136;2023-04-28T09:39:31;6.33;;;2.22;;
25868;SDS011;13688;53.154;18.136;2023-04-28T09:44:56;5.72;;;2.12;;
25868;SDS011;13688;53.154;18.136;2023-04-28T09:50:23;4.75;;;2.22;;
25868;SDS011;13688;53.154;18.136;2023-04-28T09:55:50;5.75;;;2.40;;
25868;SDS011;13688;53.154;18.136;2023-04-28T10:01:16;4.67;;;1.55;;
25868;SDS011;13688;53.154;18.136;2023-04-28T10:06:43;8.03;;;2.08;;
25868;SDS011;13688;53.154;18.136;2023-04-28T10:12:07;5.58;;;2.20;;
25868;SDS011;13688;53.154;18.136;2023-04-28T10:17:32;6.05;;;2.22;;
25868;SDS011;13688;53.154;18.136;2023-04-28T10:28:58;3.30;;;2.10;;
25868;SDS011;13688;53.154;18.136;2023-04-28T10:34:22;4.97;;;2.12;;
25868;SDS011;13688;53.154;18.136;2023-04-28T10:56:40;7.00;;;2.23;;
25868;SDS011;13688;53.154;18.136;2023-04-28T11:02:39;4.60;;;2.10;;
25868;SDS011;13688;53.154;18.136;2023-04-28T11:13:45;2.80;;;1.90;;
25868;SDS011;13688;53.154;18.136;2023-04-28T11:19:35;3.87;;;2.07;;
25868;SDS011;13688;53.154;18.136;2023-04-28T11:25:01;5.33;;;1.90;;
25868;SDS011;13688;53.154;18.136;2023-04-28T11:30:26;4.13;;;2.10;;
25868;SDS011;13688;53.154;18.136;2023-04-28T11:35:55;7.13;;;1.90;;
25868;SDS011;13688;53.154;18.136;2023-04-28T11:41:21;5.93;;;1.93;;
25868;SDS011;13688;53.154;18.136;2023-04-28T11:46:56;6.27;;;1.80;;
25868;SDS011;13688;53.154;18.136;2023-04-28T11:52:23;5.57;;;2.00;;
25868;SDS011;13688;53.154;18.136;2023-04-28T11:58:16;3.75;;;1.92;;
25868;SDS011;13688;53.154;18.136;2023-04-28T12:03:43;3.62;;;1.87;;
25868;SDS011;13688;53.154;18.136;2023-04-28T12:09:15;4.28;;;1.60;;
25868;SDS011;13688;53.154;18.136;2023-04-28T12:14:54;5.42;;;1.70;;
25868;SDS011;13688;53.154;18.136;2023-04-28T12:20:35;5.90;;;3.60;;
25868;SDS011;13688;53.154;18.136;2023-04-28T12:26:00;3.77;;;1.73;;
25868;SDS011;13688;53.154;18.136;2023-04-28T12:31:25;5.37;;;2.33;;
25868;SDS011;13688;53.154;18.136;2023-04-28T12:37:00;8.78;;;4.75;;
25868;SDS011;13688;53.154;18.136;2023-04-28T12:42:25;3.20;;;2.02;;
25868;SDS011;13688;53.154;18.136;2023-04-28T12:47:48;4.93;;;2.20;;
25868;SDS011;13688;53.154;18.136;2023-04-28T12:53:13;5.17;;;2.40;;
25868;SDS011;13688;53.154;18.136;2023-04-28T12:58:38;4.87;;;2.25;;
25868;SDS011;13688;53.154;18.136;2023-04-28T13:04:01;17.77;;;12.37;;
25868;SDS011;13688;53.154;18.136;2023-04-28T13:09:24;8.50;;;2.92;;
25868;SDS011;13688;53.154;18.136;2023-04-28T13:14:47;7.70;;;2.72;;
25868;SDS011;13688;53.154;18.136;2023-04-28T13:20:11;6.15;;;2.75;;
25868;SDS011;13688;53.154;18.136;2023-04-28T13:25:34;8.93;;;3.10;;
25868;SDS011;13688;53.154;18.136;2023-04-28T13:31:00;7.10;;;3.60;;
25868;SDS011;13688;53.154;18.136;2023-04-28T13:36:24;7.97;;;3.40;;
25868;SDS011;13688;53.154;18.136;2023-04-28T13:41:52;9.23;;;3.87;;
25868;SDS011;13688;53.154;18.136;2023-04-28T13:47:15;10.23;;;3.37;;
25868;SDS011;13688;53.154;18.136;2023-04-28T13:52:38;6.72;;;4.00;;
25868;SDS011;13688;53.154;18.136;2023-04-28T13:58:01;5.63;;;3.50;;
25868;SDS011;13688;53.154;18.136;2023-04-28T14:03:25;5.40;;;3.70;;
25868;SDS011;13688;53.154;18.136;2023-04-28T14:08:48;10.28;;;3.80;;
25868;SDS011;13688;53.154;18.136;2023-04-28T14:14:13;6.95;;;4.25;;
25868;SDS011;13688;53.154;18.136;2023-04-28T14:19:39;9.20;;;4.33;;
25868;SDS011;13688;53.154;18.136;2023-04-28T14:25:02;7.53;;;4.67;;
25868;SDS011;13688;53.154;18.136;2023-04-28T14:30:27;8.88;;;4.58;;
25868;SDS011;13688;53.154;18.136;2023-04-28T14:35:52;9.13;;;5.17;;
25868;SDS011;13688;53.154;18.136;2023-04-28T14:41:16;9.03;;;4.40;;
25868;SDS011;13688;53.154;18.136;2023-04-28T14:46:42;9.50;;;4.97;;
25868;SDS011;13688;53.154;18.136;2023-04-28T14:52:08;8.55;;;5.20;;
25868;SDS011;13688;53.154;18.136;2023-04-28T14:57:33;10.73;;;4.10;;
25868;SDS011;13688;53.154;18.136;2023-04-28T15:02:57;7.00;;;4.03;;
25868;SDS011;13688;53.154;18.136;2023-04-28T15:08:23;8.55;;;4.15;;
25868;SDS011;13688;53.154;18.136;2023-04-28T15:13:48;8.80;;;4.70;;
25868;SDS011;13688;53.154;18.136;2023-04-28T15:19:13;9.95;;;4.60;;
25868;SDS011;13688;53.154;18.136;2023-04-28T15:24:37;10.72;;;5.03;;
25868;SDS011;13688;53.154;18.136;2023-04-28T15:30:01;9.50;;;4.60;;
25868;SDS011;13688;53.154;18.136;2023-04-28T15:35:26;20.27;;;15.80;;
25868;SDS011;13688;53.154;18.136;2023-04-28T15:40:51;10.93;;;4.73;;
25868;SDS011;13688;53.154;18.136;2023-04-28T15:46:16;7.90;;;4.77;;
25868;SDS011;13688;53.154;18.136;2023-04-28T15:51:40;9.98;;;4.65;;
25868;SDS011;13688;53.154;18.136;2023-04-28T15:57:05;9.28;;;4.90;;
25868;SDS011;13688;53.154;18.136;2023-04-28T16:02:32;10.58;;;5.72;;
25868;SDS011;13688;53.154;18.136;2023-04-28T16:07:56;9.50;;;4.77;;
25868;SDS011;13688;53.154;18.136;2023-04-28T16:13:21;10.50;;;5.25;;
25868;SDS011;13688;53.154;18.136;2023-04-28T16:18:47;9.53;;;4.93;;
25868;SDS011;13688;53.154;18.136;2023-04-28T16:24:12;8.45;;;4.37;;
25868;SDS011;13688;53.154;18.136;2023-04-28T16:29:38;10.35;;;4.80;;
25868;SDS011;13688;53.154;18.136;2023-04-28T16:35:02;8.95;;;4.53;;
25868;SDS011;13688;53.154;18.136;2023-04-28T16:40:26;11.22;;;4.97;;
25868;SDS011;13688;53.154;18.136;2023-04-28T16:45:51;9.05;;;5.08;;
25868;SDS011;13688;53.154;18.136;2023-04-28T16:51:16;8.00;;;5.03;;
25868;SDS011;13688;53.154;18.136;2023-04-28T16:56:43;10.23;;;4.85;;
25868;SDS011;13688;53.154;18.136;2023-04-28T17:02:07;10.32;;;5.17;;
25868;SDS011;13688;53.154;18.136;2023-04-28T17:07:32;7.10;;;4.42;;
25868;SDS011;13688;53.154;18.136;2023-04-28T17:12:57;9.38;;;4.45;;
25868;SDS011;13688;53.154;18.136;2023-04-28T17:18:22;10.23;;;4.75;;
25868;SDS011;13688;53.154;18.136;2023-04-28T17:23:47;9.98;;;4.85;;
25868;SDS011;13688;53.154;18.136;2023-04-28T17:29:11;6.83;;;4.50;;
25868;SDS011;13688;53.154;18.136;2023-04-28T17:34:36;12.47;;;5.17;;
25868;SDS011;13688;53.154;18.136;2023-04-28T17:40:01;16.03;;;6.03;;
25868;SDS011;13688;53.154;18.136;2023-04-28T17:45:30;9.37;;;5.37;;
25868;SDS011;13688;53.154;18.136;2023-04-28T17:50:56;12.95;;;5.50;;
25868;SDS011;13688;53.154;18.136;2023-04-28T17:56:21;13.33;;;6.33;;
25868;SDS011;13688;53.154;18.136;2023-04-28T18:01:46;10.60;;;5.30;;
25868;SDS011;13688;53.154;18.136;2023-04-28T18:07:11;14.18;;;6.22;;
25868;SDS011;13688;53.154;18.136;2023-04-28T18:12:38;13.00;;;5.87;;
25868;SDS011;13688;53.154;18.136;2023-04-28T18:18:03;11.73;;;6.17;;
25868;SDS011;13688;53.154;18.136;2023-04-28T18:23:28;14.83;;;5.83;;
25868;SDS011;13688;53.154;18.136;2023-04-28T18:28:52;16.90;;;6.07;;
25868;SDS011;13688;53.154;18.136;2023-04-28T18:34:16;13.17;;;6.20;;
25868;SDS011;13688;53.154;18.136;2023-04-28T18:39:41;16.53;;;7.07;;
25868;SDS011;13688;53.154;18.136;2023-04-28T18:45:07;13.63;;;6.20;;
25868;SDS011;13688;53.154;18.136;2023-04-28T18:50:31;17.07;;;6.63;;
25868;SDS011;13688;53.154;18.136;2023-04-28T18:55:56;23.35;;;12.68;;
25868;SDS011;13688;53.154;18.136;2023-04-28T19:01:21;19.37;;;7.57;;
25868;SDS011;13688;53.154;18.136;2023-04-28T19:06:46;17.73;;;8.58;;
25868;SDS011;13688;53.154;18.136;2023-04-28T19:12:11;19.07;;;9.20;;
25868;SDS011;13688;53.154;18.136;2023-04-28T19:17:35;25.97;;;10.08;;
25868;SDS011;13688;53.154;18.136;2023-04-28T19:22:59;22.77;;;10.10;;
25868;SDS011;13688;53.154;18.136;2023-04-28T19:28:25;30.20;;;10.40;;
25868;SDS011;13688;53.154;18.136;2023-04-28T19:33:49;24.35;;;12.18;;
25868;SDS011;13688;53.154;18.136;2023-04-28T19:39:14;26.77;;;11.43;;
25868;SDS011;13688;53.154;18.136;2023-04-28T19:44:38;30.33;;;12.70;;
25868;SDS011;13688;53.154;18.136;2023-04-28T19:50:07;21.52;;;11.43;;
25868;SDS011;13688;53.154;18.136;2023-04-28T19:55:31;49.60;;;29.07;;
25868;SDS011;13688;53.154;18.136;2023-04-28T20:00:55;20.82;;;11.70;;
25868;SDS011;13688;53.154;18.136;2023-04-28T20:06:21;21.05;;;11.35;;
25868;SDS011;13688;53.154;18.136;2023-04-28T20:11:46;27.52;;;12.18;;
25868;SDS011;13688;53.154;18.136;2023-04-28T20:17:10;25.55;;;10.72;;
25868;SDS011;13688;53.154;18.136;2023-04-28T20:22:35;25.52;;;10.45;;
25868;SDS011;13688;53.154;18.136;2023-04-28T20:27:58;21.70;;;10.93;;
25868;SDS011;13688;53.154;18.136;2023-04-28T20:33:22;23.18;;;11.05;;
25868;SDS011;13688;53.154;18.136;2023-04-28T20:38:46;27.45;;;11.55;;
25868;SDS011;13688;53.154;18.136;2023-04-28T20:44:12;65.67;;;34.92;;
25868;SDS011;13688;53.154;18.136;2023-04-28T20:49:38;26.00;;;13.45;;
25868;SDS011;13688;53.154;18.136;2023-04-28T20:55:03;24.00;;;12.93;;
25868;SDS011;13688;53.154;18.136;2023-04-28T21:00:27;25.17;;;12.63;;
25868;SDS011;13688;53.154;18.136;2023-04-28T21:05:52;28.87;;;12.50;;
25868;SDS011;13688;53.154;18.136;2023-04-28T21:11:16;27.30;;;13.70;;
25868;SDS011;13688;53.154;18.136;2023-04-28T21:16:41;26.05;;;13.28;;
25868;SDS011;13688;53.154;18.136;2023-04-28T21:22:06;25.80;;;12.82;;
25868;SDS011;13688;53.154;18.136;2023-04-28T21:27:31;21.02;;;12.80;;
25868;SDS011;13688;53.154;18.136;2023-04-28T21:32:55;28.00;;;13.18;;
25868;SDS011;13688;53.154;18.136;2023-04-28T21:38:19;25.30;;;13.30;;
25868;SDS011;13688;53.154;18.136;2023-04-28T21:43:44;22.27;;;12.82;;
25868;SDS011;13688;53.154;18.136;2023-04-28T21:49:08;23.65;;;13.03;;
25868;SDS011;13688;53.154;18.136;2023-04-28T21:54:33;24.00;;;12.63;;
25868;SDS011;13688;53.154;18.136;2023-04-28T21:59:57;23.83;;;13.20;;
25868;SDS011;13688;53.154;18.136;2023-04-28T22:05:24;24.47;;;13.03;;
25868;SDS011;13688;53.154;18.136;2023-04-28T22:10:49;26.68;;;13.08;;
25868;SDS011;13688;53.154;18.136;2023-04-28T22:16:14;23.45;;;12.23;;
25868;SDS011;13688;53.154;18.136;2023-04-28T22:21:39;25.60;;;13.83;;
25868;SDS011;13688;53.154;18.136;2023-04-28T22:27:04;23.60;;;12.40;;
25868;SDS011;13688;53.154;18.136;2023-04-28T22:32:30;20.75;;;11.95;;
25868;SDS011;13688;53.154;18.136;2023-04-28T22:37:56;22.52;;;12.98;;
25868;SDS011;13688;53.154;18.136;2023-04-28T22:43:20;21.35;;;12.10;;
25868;SDS011;13688;53.154;18.136;2023-04-28T22:48:45;19.70;;;11.20;;
25868;SDS011;13688;53.154;18.136;2023-04-28T22:54:10;23.73;;;12.37;;
25868;SDS011;13688;53.154;18.136;2023-04-28T22:59:36;22.85;;;11.35;;
25868;SDS011;13688;53.154;18.136;2023-04-28T23:05:00;23.62;;;12.50;;
25868;SDS011;13688;53.154;18.136;2023-04-28T23:10:24;23.30;;;12.50;;
25868;SDS011;13688;53.154;18.136;2023-04-28T23:15:48;19.37;;;11.60;;
25868;SDS011;13688;53.154;18.136;2023-04-28T23:21:13;25.30;;;12.23;;
25868;SDS011;13688;53.154;18.136;2023-04-28T23:26:38;19.80;;;11.20;;
25868;SDS011;13688;53.154;18.136;2023-04-28T23:32:03;17.65;;;10.48;;
25868;SDS011;13688;53.154;18.136;2023-04-28T23:37:28;19.37;;;11.48;;
25868;SDS011;13688;53.154;18.136;2023-04-28T23:42:51;19.80;;;11.22;;
25868;SDS011;13688;53.154;18.136;2023-04-28T23:48:17;18.50;;;10.63;;
25868;SDS011;13688;53.154;18.136;2023-04-28T23:53:41;23.62;;;11.90;;
25868;SDS011;13688;53.154;18.136;2023-04-28T23:59:05;23.38;;;11.08;;
